Skip Navigation LinksHome page > Weather > Current weather Skip Navigation Links

Current Weather

Albert Whitted, St Petersburg, Fla.

For information only: do not use for flight planning or navigation.
Latest weather
Observation time Sunday, May 26, 2019 10:53 AM EDT
Local time Sunday, May 26, 2019 11:36 AM EDT
Flight conditions Visual Meteorological Conditions
Winds
Wind direction East (100°)
Wind speed 12 mph
Visibility 10 mi.
Sky condition
Ceiling unlimited
Sky clear
Temperature 77°F
Dewpoint 72°F
Altimeter 30.14 in.Hg
Pressure change last 3 hours0.00 in.Hg
Pressure falling more quickly
Derived measurements
Relative humidity 85%
Heat index 77°F
Density altitude 1276 ft.
Sea-level pressure 30.14 in.Hg
Remarks
System requires maintenance.
Automated weather observing station with precipitation discriminator.
Precipitation sensor not operating.
METAR KSPG 261453Z 10010KT 10SM CLR 25/22 A3014 RMK AO2 SLP206 6//// T02500222 58000 PNO $

Settings

Location code

InnerDrive.Weather 4.0.6770.0 Release CLR 4.0.30319.42000
Copyright ©2018 Inner Drive Technology. All rights reserved. Portions Copyright ©1986-2018 David Braverman.

Find weather

Site navigation


Skip Navigation Links

Place info

Page info

PayPal - The safer, easier way to pay online!

Return home.

Copyright ©2019 Inner Drive Technology. Purveyors of fine, hand-crafted computer software. Page printed 2019-05-26T15:36:26 UTC.